Time;durP1;ratioP1;P1;durP2;ratioP2;P2;SDS_P1;SDS_P2;PMS_P1;PMS_P2;Temp;Humidity;BMP_temperature;BMP_pressure;BME280_temperature;BME280_humidity;BME280_pressure;Samples;Min_cycle;Max_cycle;Signal;HPM_P1;HPM_P2
2024/04/19 00:01:27;;;;;;;4.03;3.73;;;6.10;59.20;;;;;;5311303;27;20307;-66
2024/04/19 00:03:55;;;;;;;4.00;3.70;;;6.20;58.30;;;;;;5275341;27;20357;-66
2024/04/19 00:06:21;;;;;;;3.93;3.63;;;6.20;58.60;;;;;;5311006;27;20566;-66
2024/04/19 00:08:49;;;;;;;3.80;3.50;;;6.20;58.90;;;;;;5310863;27;20325;-66
2024/04/19 00:11:14;;;;;;;4.10;3.80;;;6.20;58.50;;;;;;5302506;27;20239;-66
2024/04/19 00:13:42;;;;;;;4.73;3.80;;;6.00;58.90;;;;;;5305860;27;20337;-66
2024/04/19 00:16:08;;;;;;;4.33;3.50;;;6.00;59.40;;;;;;5298200;27;20243;-66
2024/04/19 00:18:36;;;;;;;3.60;3.30;;;5.90;59.20;;;;;;5309997;27;20247;-66
2024/04/19 00:21:02;;;;;;;3.90;3.60;;;5.90;58.90;;;;;;5308798;27;20231;-66
2024/04/19 00:23:30;;;;;;;3.60;3.30;;;5.90;59.10;;;;;;5309539;27;20325;-65
2024/04/19 00:25:57;;;;;;;3.80;3.50;;;5.90;59.70;;;;;;5305649;27;20377;-66
2024/04/19 00:28:25;;;;;;;3.60;3.40;;;5.90;59.60;;;;;;5301614;27;20247;-66
2024/04/19 00:30:51;;;;;;;3.60;3.30;;;5.80;59.70;;;;;;5305415;27;20274;-66
2024/04/19 00:33:19;;;;;;;3.50;3.30;;;5.90;59.70;;;;;;5310010;27;20238;-66
2024/04/19 00:35:44;;;;;;;4.17;3.77;;;5.90;59.70;;;;;;5299504;27;20726;-66
2024/04/19 00:38:13;;;;;;;3.87;3.57;;;5.80;59.70;;;;;;5310604;27;20329;-66
2024/04/19 00:40:38;;;;;;;3.73;3.43;;;5.80;59.70;;;;;;5310724;27;20243;-69
2024/04/19 00:43:07;;;;;;;3.70;3.40;;;5.80;59.70;;;;;;5310588;27;20800;-66
2024/04/19 00:45:32;;;;;;;4.40;3.83;;;5.80;60.00;;;;;;5296221;27;20310;-66
2024/04/19 00:48:01;;;;;;;3.70;3.50;;;5.90;60.00;;;;;;5306286;27;20328;-66
2024/04/19 00:50:26;;;;;;;3.70;3.50;;;5.80;60.00;;;;;;5292647;27;20382;-66
2024/04/19 00:52:55;;;;;;;3.90;3.53;;;5.70;60.30;;;;;;5309168;27;20254;-66
2024/04/19 00:55:20;;;;;;;3.80;3.50;;;5.70;60.40;;;;;;5309598;27;20297;-66
2024/04/19 00:57:49;;;;;;;4.03;3.73;;;5.80;60.50;;;;;;5310639;27;20357;-66
2024/04/19 01:00:14;;;;;;;3.70;3.40;;;5.70;60.60;;;;;;5295245;27;20340;-65
2024/04/19 01:02:43;;;;;;;3.40;3.20;;;5.70;60.80;;;;;;5301861;27;20738;-66
2024/04/19 01:05:08;;;;;;;3.87;3.57;;;5.60;60.20;;;;;;5308126;27;20281;-66
2024/04/19 01:07:37;;;;;;;3.70;3.40;;;5.60;61.00;;;;;;5274684;27;20644;-66
2024/04/19 01:10:02;;;;;;;4.07;3.73;;;5.60;61.00;;;;;;5306701;27;20313;-66
2024/04/19 01:12:30;;;;;;;3.40;3.20;;;5.50;61.10;;;;;;5279683;27;20305;-66
2024/04/19 01:14:56;;;;;;;3.80;3.50;;;5.50;61.20;;;;;;5310149;27;20277;-66
2024/04/19 01:17:24;;;;;;;3.90;3.60;;;5.40;61.70;;;;;;5307157;27;20246;-65
2024/04/19 01:19:50;;;;;;;3.80;3.50;;;5.40;61.10;;;;;;5298796;27;20293;-66
2024/04/19 01:22:18;;;;;;;3.80;3.50;;;5.50;60.90;;;;;;5310045;27;20255;-66
2024/04/19 01:24:43;;;;;;;4.27;3.97;;;5.50;61.40;;;;;;5309808;27;20365;-65
2024/04/19 01:27:12;;;;;;;4.20;3.90;;;5.60;61.10;;;;;;5300209;27;20741;-66
2024/04/19 01:29:37;;;;;;;3.90;3.60;;;5.60;60.90;;;;;;5309500;27;20343;-66
2024/04/19 01:32:06;;;;;;;4.17;3.87;;;5.50;61.20;;;;;;5309551;27;20250;-66
2024/04/19 01:34:31;;;;;;;4.30;3.90;;;5.50;61.30;;;;;;5306098;27;20576;-66
2024/04/19 01:36:59;;;;;;;4.27;3.97;;;5.40;61.50;;;;;;5283977;27;20314;-65
2024/04/19 01:39:25;;;;;;;4.40;4.10;;;5.50;61.60;;;;;;5309964;27;20289;-66
2024/04/19 01:41:53;;;;;;;4.60;4.30;;;5.40;60.90;;;;;;5309457;27;20345;-66
2024/04/19 01:44:19;;;;;;;4.60;4.20;;;5.30;61.00;;;;;;5296177;27;20372;-66
2024/04/19 01:46:47;;;;;;;5.20;4.80;;;5.30;61.70;;;;;;5300779;27;20254;-66
2024/04/19 01:49:13;;;;;;;4.30;4.00;;;5.30;61.70;;;;;;5305880;27;20242;-66
2024/04/19 01:51:41;;;;;;;4.80;4.50;;;5.30;61.10;;;;;;5303818;27;20814;-66
2024/04/19 01:54:06;;;;;;;4.53;4.23;;;5.30;61.50;;;;;;5307464;27;20306;-66
2024/04/19 01:56:35;;;;;;;4.63;4.23;;;5.30;61.50;;;;;;5308369;27;20343;-66
2024/04/19 01:59:00;;;;;;;4.87;4.47;;;5.30;61.40;;;;;;5309551;27;20306;-66
2024/04/19 02:01:28;;;;;;;4.67;4.37;;;5.40;61.60;;;;;;5309146;27;20692;-66
2024/04/19 02:03:54;;;;;;;5.13;4.73;;;5.30;61.30;;;;;;5296917;27;20251;-66
2024/04/19 02:06:22;;;;;;;5.00;4.60;;;5.30;61.50;;;;;;5292748;27;20589;-66
2024/04/19 02:08:48;;;;;;;5.10;4.70;;;5.30;61.80;;;;;;5304584;27;20706;-66
2024/04/19 02:11:16;;;;;;;4.97;4.57;;;5.20;62.00;;;;;;5311914;27;20344;-65
2024/04/19 02:13:42;;;;;;;5.00;4.60;;;5.20;61.90;;;;;;5312365;27;20309;-66
2024/04/19 02:16:10;;;;;;;5.43;4.93;;;5.20;62.00;;;;;;5307589;27;20339;-66
2024/04/19 02:18:35;;;;;;;5.27;4.87;;;5.10;61.60;;;;;;5306689;27;20254;-65
2024/04/19 02:21:04;;;;;;;5.67;5.17;;;5.30;61.80;;;;;;5307094;27;20239;-66
2024/04/19 02:23:29;;;;;;;5.70;5.27;;;5.30;61.90;;;;;;5281674;27;20379;-65
2024/04/19 02:25:57;;;;;;;5.40;4.97;;;5.30;61.50;;;;;;5301829;27;20251;-65
2024/04/19 02:31:10;;;;;;;6.10;5.50;;;5.20;62.10;;;;;;5310417;27;20757;-66
2024/04/19 02:33:38;;;;;;;5.40;5.00;;;5.30;61.80;;;;;;5302667;27;20712;-66
2024/04/19 02:36:06;;;;;;;5.43;5.03;;;5.20;62.40;;;;;;5305129;27;20318;-66
2024/04/19 02:38:35;;;;;;;5.40;4.90;;;5.20;62.00;;;;;;5312181;27;20242;-66
2024/04/19 02:41:03;;;;;;;5.80;5.30;;;5.30;61.80;;;;;;5311864;27;20352;-66
2024/04/19 02:43:31;;;;;;;5.80;5.30;;;5.30;61.90;;;;;;5303736;27;20255;-66
2024/04/19 02:45:59;;;;;;;5.30;4.90;;;5.20;62.10;;;;;;5302338;27;20303;-66
2024/04/19 02:48:27;;;;;;;5.80;5.30;;;5.20;62.40;;;;;;5288943;27;20797;-66
2024/04/19 02:50:56;;;;;;;5.60;5.10;;;5.10;62.60;;;;;;5310462;27;20239;-66
2024/04/19 02:53:24;;;;;;;5.67;5.17;;;5.30;62.30;;;;;;5307058;27;20679;-66
2024/04/19 02:55:52;;;;;;;5.97;5.47;;;5.30;62.00;;;;;;5311146;27;20286;-66
2024/04/19 02:58:21;;;;;;;6.27;5.67;;;5.20;61.90;;;;;;5298658;27;20251;-66
2024/04/19 03:00:49;;;;;;;6.10;5.57;;;5.20;62.00;;;;;;5304691;27;20294;-66
2024/04/19 03:03:14;;;;;;;6.00;5.40;;;5.20;61.70;;;;;;5311865;27;20238;-65
2024/04/19 03:05:43;;;;;;;4.93;4.53;;;5.20;62.00;;;;;;5310822;27;20243;-66
2024/04/19 03:08:11;;;;;;;6.03;5.43;;;5.20;62.30;;;;;;5305075;27;20235;-66
2024/04/19 03:10:36;;;;;;;5.80;5.30;;;5.10;61.80;;;;;;5278805;27;20241;-66
2024/04/19 03:13:05;;;;;;;5.80;5.30;;;5.20;61.70;;;;;;5311291;27;20329;-66
2024/04/19 03:15:33;;;;;;;5.97;5.40;;;5.10;61.70;;;;;;5308301;27;20280;-66
2024/04/19 03:18:01;;;;;;;6.10;5.60;;;5.20;61.30;;;;;;5299324;27;20246;-66
2024/04/19 03:20:30;;;;;;;6.17;5.67;;;5.20;61.70;;;;;;5303081;27;20741;-66
2024/04/19 03:22:58;;;;;;;6.30;5.43;;;5.30;62.30;;;;;;5311653;27;20775;-65
2024/04/19 03:25:26;;;;;;;5.70;5.23;;;5.30;61.30;;;;;;5310763;27;20289;-65
2024/04/19 03:27:55;;;;;;;6.27;5.67;;;5.20;61.40;;;;;;5307184;27;20238;-66
2024/04/19 03:30:23;;;;;;;5.90;5.40;;;5.30;61.50;;;;;;5310918;27;20369;-65
2024/04/19 03:32:51;;;;;;;6.30;5.70;;;5.20;61.50;;;;;;5311856;27;20303;-66
2024/04/19 03:35:20;;;;;;;6.20;5.70;;;5.20;61.50;;;;;;5297198;27;20314;-66
2024/04/19 03:37:48;;;;;;;6.07;5.60;;;5.30;61.60;;;;;;5311784;27;20247;-66
2024/04/19 03:40:16;;;;;;;6.47;5.87;;;5.30;61.70;;;;;;5311660;27;20270;-66
2024/04/19 03:42:48;;;;;;;6.80;6.20;;;5.20;61.70;;;;;;5311188;27;20365;-66
2024/04/19 03:48:01;;;;;;;6.40;5.80;;;5.30;61.80;;;;;;5301541;27;20264;-66
2024/04/19 03:50:29;;;;;;;6.33;5.83;;;5.30;61.70;;;;;;5306495;27;20254;-66
2024/04/19 03:52:57;;;;;;;6.57;6.07;;;5.30;61.20;;;;;;5297501;27;20289;-66
2024/04/19 03:55:25;;;;;;;6.97;6.00;;;5.30;61.10;;;;;;5311082;27;20250;-66
2024/04/19 03:57:51;;;;;;;6.77;6.13;;;5.30;61.30;;;;;;5311503;27;20301;-66
2024/04/19 04:00:20;;;;;;;6.70;6.13;;;5.30;61.40;;;;;;5311070;27;20337;-66
2024/04/19 04:02:48;;;;;;;6.60;5.80;;;5.30;61.10;;;;;;5311910;27;20247;-66
2024/04/19 04:05:13;;;;;;;6.33;5.83;;;5.40;61.00;;;;;;5300996;27;20876;-65
2024/04/19 04:07:42;;;;;;;7.53;6.87;;;5.30;61.10;;;;;;5303818;27;20254;-66
2024/04/19 04:10:10;;;;;;;7.00;6.40;;;5.30;60.80;;;;;;5295723;27;20238;-66
2024/04/19 04:12:38;;;;;;;7.00;6.40;;;5.30;60.80;;;;;;5295342;27;20246;-66
2024/04/19 04:15:07;;;;;;;7.30;6.70;;;5.40;61.00;;;;;;5311001;27;20692;-66
2024/04/19 04:17:35;;;;;;;6.83;6.27;;;5.30;60.90;;;;;;5310935;27;20242;-66
2024/04/19 04:20:04;;;;;;;7.70;7.00;;;5.40;60.70;;;;;;5302011;27;20383;-65
2024/04/19 04:22:32;;;;;;;6.83;6.23;;;5.40;60.10;;;;;;5310864;27;20297;-66
2024/04/19 04:25:00;;;;;;;7.37;6.00;;;5.40;60.30;;;;;;5302080;27;20243;-66
2024/04/19 04:27:28;;;;;;;7.03;6.43;;;5.40;60.00;;;;;;5308948;27;20657;-67
2024/04/19 04:29:57;;;;;;;8.40;7.10;;;5.50;59.80;;;;;;5302881;27;20733;-66
2024/04/19 04:32:25;;;;;;;6.93;6.33;;;5.50;59.70;;;;;;5310562;27;20238;-67
2024/04/19 04:34:53;;;;;;;8.33;7.53;;;5.40;59.70;;;;;;5307241;27;20277;-66
2024/04/19 04:37:21;;;;;;;10.87;7.50;;;5.40;59.70;;;;;;5294562;27;20238;-66
2024/04/19 04:39:50;;;;;;;9.33;8.33;;;5.40;59.90;;;;;;5310082;27;20238;-66
2024/04/19 04:42:18;;;;;;;9.37;8.47;;;5.30;60.00;;;;;;5307221;27;20364;-66
2024/04/19 04:44:46;;;;;;;9.53;8.63;;;5.30;60.40;;;;;;5310197;27;20360;-66
2024/04/19 04:47:15;;;;;;;8.70;7.90;;;5.30;60.20;;;;;;5310312;27;20246;-67
2024/04/19 04:49:43;;;;;;;8.97;8.07;;;5.30;60.10;;;;;;5300544;27;20625;-66
2024/04/19 04:52:11;;;;;;;8.87;7.97;;;5.20;60.60;;;;;;5310147;27;20302;-66
2024/04/19 04:54:39;;;;;;;8.77;7.90;;;5.30;60.60;;;;;;5304423;27;20317;-66
2024/04/19 04:57:08;;;;;;;9.47;8.57;;;5.30;60.20;;;;;;5302242;27;20356;-66
2024/04/19 04:59:36;;;;;;;9.13;8.23;;;5.40;60.50;;;;;;5301469;27;20242;-66
2024/04/19 05:02:04;;;;;;;9.40;8.47;;;5.50;60.20;;;;;;5299666;27;20246;-67
2024/04/19 05:04:33;;;;;;;8.90;8.10;;;5.50;60.00;;;;;;5302695;27;20611;-66
2024/04/19 05:07:01;;;;;;;8.70;7.80;;;5.60;60.30;;;;;;5309925;27;20306;-66
2024/04/19 05:09:29;;;;;;;9.40;8.13;;;5.50;60.10;;;;;;5309478;27;20243;-66
2024/04/19 05:11:57;;;;;;;9.47;8.53;;;5.40;59.90;;;;;;5299884;27;20322;-66
2024/04/19 05:14:26;;;;;;;9.23;8.33;;;5.50;60.00;;;;;;5309391;27;20309;-66
2024/04/19 05:16:54;;;;;;;9.77;8.77;;;5.50;60.00;;;;;;5300849;27;20242;-66
2024/04/19 05:19:22;;;;;;;9.00;8.10;;;5.70;59.80;;;;;;5306570;27;20269;-66
2024/04/19 05:21:50;;;;;;;9.37;8.43;;;5.70;59.60;;;;;;5309629;27;20641;-66
2024/04/19 05:24:19;;;;;;;9.17;8.27;;;5.70;59.50;;;;;;5309591;27;20302;-66
2024/04/19 05:26:47;;;;;;;8.50;7.70;;;5.70;59.60;;;;;;5309807;27;20369;-66
2024/04/19 05:29:15;;;;;;;8.63;7.83;;;5.60;59.30;;;;;;5295195;27;20679;-66
2024/04/19 05:31:43;;;;;;;8.67;7.77;;;5.60;59.50;;;;;;5299639;27;20266;-66
2024/04/19 05:34:11;;;;;;;8.40;7.70;;;5.70;59.10;;;;;;5303727;27;20285;-66
2024/04/19 05:36:40;;;;;;;8.50;7.70;;;5.80;58.90;;;;;;5309399;27;20286;-66
2024/04/19 05:39:08;;;;;;;8.40;7.60;;;5.80;59.30;;;;;;5312310;27;20321;-66
2024/04/19 05:41:36;;;;;;;8.57;7.77;;;5.90;58.80;;;;;;5312255;27;20360;-66
2024/04/19 05:44:03;;;;;;;7.90;7.10;;;5.90;58.70;;;;;;5312316;27;20318;-66
2024/04/19 05:46:31;;;;;;;8.93;8.03;;;5.90;58.70;;;;;;5303783;27;20284;-66
2024/04/19 05:49:00;;;;;;;8.33;7.53;;;5.80;58.80;;;;;;5308193;27;20294;-67
2024/04/19 05:51:28;;;;;;;8.13;7.33;;;5.90;58.60;;;;;;5298446;27;20719;-66
2024/04/19 05:53:57;;;;;;;7.87;7.17;;;5.80;58.30;;;;;;5304944;27;20265;-66
2024/04/19 05:56:27;;;;;;;7.50;6.80;;;5.90;58.80;;;;;;5305714;27;20372;-66
2024/04/19 05:58:57;;;;;;;7.77;6.97;;;6.00;58.60;;;;;;5311867;27;20273;-66
2024/04/19 06:01:25;;;;;;;8.27;7.47;;;6.00;58.40;;;;;;5296240;27;20829;-67
2024/04/19 06:03:53;;;;;;;7.90;7.10;;;6.10;58.50;;;;;;5298401;27;20239;-67
2024/04/19 06:06:23;;;;;;;8.17;7.37;;;6.10;58.10;;;;;;5301542;27;20303;-66
2024/04/19 06:08:51;;;;;;;8.30;7.60;;;6.10;57.80;;;;;;5311713;27;20278;-67
2024/04/19 06:11:19;;;;;;;7.83;7.13;;;6.00;57.80;;;;;;5282624;27;20347;-67
2024/04/19 06:13:47;;;;;;;8.20;7.40;;;6.10;57.80;;;;;;5277839;27;20247;-66
2024/04/19 06:16:16;;;;;;;7.17;6.47;;;6.30;57.30;;;;;;5301332;27;20341;-67
2024/04/19 06:18:44;;;;;;;8.23;7.43;;;6.40;57.10;;;;;;5301929;27;20556;-67
2024/04/19 06:21:12;;;;;;;7.77;7.07;;;6.40;57.00;;;;;;5306493;27;26864;-66
2024/04/19 06:23:40;;;;;;;7.97;7.17;;;6.40;57.20;;;;;;5302819;27;20319;-67
2024/04/19 06:26:08;;;;;;;8.47;6.60;;;6.40;56.80;;;;;;5295176;27;20356;-67
2024/04/19 06:28:38;;;;;;;8.07;7.23;;;6.40;57.50;;;;;;5313146;27;20310;-67
2024/04/19 06:31:06;;;;;;;7.50;6.70;;;6.50;57.30;;;;;;5303178;27;20242;-67
2024/04/19 06:33:34;;;;;;;7.77;7.03;;;6.40;57.60;;;;;;5312548;27;20359;-67
2024/04/19 06:36:03;;;;;;;8.00;7.20;;;6.50;57.50;;;;;;5281960;27;20232;-66
2024/04/19 06:38:31;;;;;;;7.67;6.97;;;6.50;57.60;;;;;;5307601;27;20286;-65
2024/04/19 06:40:59;;;;;;;8.07;7.23;;;6.60;56.80;;;;;;5305910;27;20341;-66
2024/04/19 06:43:27;;;;;;;7.73;6.93;;;6.60;56.50;;;;;;5298665;27;20357;-65
2024/04/19 06:45:58;;;;;;;7.93;7.13;;;6.50;57.80;;;;;;5301600;27;20371;-66
2024/04/19 06:48:26;;;;;;;7.53;6.53;;;6.50;57.30;;;;;;5311684;27;20786;-65
2024/04/19 06:50:54;;;;;;;8.20;7.40;;;6.60;57.30;;;;;;5309170;27;20374;-65
2024/04/19 06:53:23;;;;;;;7.37;6.57;;;6.60;57.20;;;;;;5301571;27;20274;-65
2024/04/19 06:55:52;;;;;;;7.13;6.53;;;6.70;56.90;;;;;;5301340;27;20357;-66
2024/04/19 06:58:20;;;;;;;7.47;6.57;;;6.60;57.10;;;;;;5280127;27;20249;-66
2024/04/19 07:00:49;;;;;;;7.63;6.93;;;6.50;57.10;;;;;;5274435;27;20293;-66
2024/04/19 07:03:18;;;;;;;7.60;6.90;;;6.70;57.10;;;;;;5312156;27;20243;-66
2024/04/19 07:05:47;;;;;;;6.80;6.10;;;6.80;56.60;;;;;;5310792;27;20323;-66
2024/04/19 07:08:15;;;;;;;7.43;6.73;;;6.70;56.50;;;;;;5300196;27;20243;-66
2024/04/19 07:10:43;;;;;;;7.93;6.93;;;6.60;56.70;;;;;;5292580;27;20278;-66
2024/04/19 07:13:11;;;;;;;7.57;6.73;;;6.70;56.70;;;;;;5295163;27;20313;-66
2024/04/19 07:15:40;;;;;;;7.20;6.50;;;6.90;56.40;;;;;;5295674;27;20268;-66
2024/04/19 07:18:08;;;;;;;7.23;6.53;;;6.80;56.70;;;;;;5306792;27;20362;-66
2024/04/19 07:20:36;;;;;;;8.37;7.30;;;6.80;56.90;;;;;;5297421;27;20248;-65
2024/04/19 07:23:05;;;;;;;8.70;6.80;;;6.80;57.00;;;;;;5295113;27;20248;-64
2024/04/19 07:25:33;;;;;;;8.10;7.30;;;6.70;57.50;;;;;;5300183;27;20957;-65
2024/04/19 07:28:01;;;;;;;7.70;7.00;;;6.70;57.40;;;;;;5303882;27;20246;-65
2024/04/19 07:30:30;;;;;;;8.07;7.27;;;6.70;57.70;;;;;;5299399;27;20314;-64
2024/04/19 07:32:58;;;;;;;7.87;6.87;;;6.70;58.50;;;;;;5299714;27;20258;-64
2024/04/19 07:35:26;;;;;;;7.93;7.13;;;6.80;59.00;;;;;;5301921;27;20635;-64
2024/04/19 07:37:54;;;;;;;8.23;7.43;;;6.90;58.80;;;;;;5301537;27;20719;-64
2024/04/19 07:40:23;;;;;;;8.63;7.27;;;6.80;58.60;;;;;;5284606;27;20318;-64
2024/04/19 07:42:51;;;;;;;7.47;6.77;;;6.70;58.70;;;;;;5293595;27;20298;-64
2024/04/19 07:45:22;;;;;;;10.17;7.87;;;6.80;59.00;;;;;;5305207;27;20386;-64
2024/04/19 07:47:51;;;;;;;8.10;6.70;;;6.80;58.40;;;;;;5302311;27;20251;-64
2024/04/19 07:50:19;;;;;;;8.83;6.73;;;6.90;58.70;;;;;;5297152;27;20361;-65
2024/04/19 07:52:47;;;;;;;7.43;6.73;;;6.80;58.50;;;;;;5306668;27;20243;-64
2024/04/19 07:55:15;;;;;;;7.53;6.87;;;6.80;59.30;;;;;;5298311;27;20248;-65
2024/04/19 07:57:44;;;;;;;8.30;6.80;;;6.80;59.20;;;;;;5298256;27;20285;-66
2024/04/19 08:00:16;;;;;;;8.07;6.70;;;6.70;59.10;;;;;;5303250;27;20248;-65
2024/04/19 08:02:44;;;;;;;7.83;7.07;;;6.70;58.70;;;;;;5287486;27;20621;-65
2024/04/19 08:05:13;;;;;;;7.60;6.73;;;6.60;58.50;;;;;;5309657;27;20437;-70
2024/04/19 08:07:41;;;;;;;7.23;6.53;;;6.70;59.30;;;;;;5303851;27;20976;-66
2024/04/19 08:10:09;;;;;;;7.67;6.87;;;6.90;58.60;;;;;;5307140;27;20341;-65
2024/04/19 08:12:37;;;;;;;7.37;6.67;;;7.00;59.10;;;;;;5304415;27;20302;-66
2024/04/19 08:15:06;;;;;;;6.80;6.20;;;7.20;57.50;;;;;;5306415;27;20359;-66
2024/04/19 08:17:34;;;;;;;7.83;7.03;;;7.40;56.70;;;;;;5295978;27;20342;-66
2024/04/19 08:20:03;;;;;;;7.07;6.40;;;7.50;57.40;;;;;;5300948;27;20369;-65
2024/04/19 08:22:31;;;;;;;7.03;6.33;;;7.70;56.90;;;;;;5292610;27;20241;-65
2024/04/19 08:25:00;;;;;;;7.03;6.30;;;7.80;55.00;;;;;;5304729;27;20288;-65
2024/04/19 08:27:28;;;;;;;6.43;5.83;;;8.00;53.70;;;;;;5310243;27;20347;-64
2024/04/19 08:29:56;;;;;;;6.13;5.53;;;8.20;52.90;;;;;;5310331;27;20234;-65
2024/04/19 08:32:24;;;;;;;6.73;6.03;;;8.90;53.90;;;;;;5301836;27;20250;-64
2024/04/19 08:34:56;;;;;;;6.87;5.33;;;9.20;51.30;;;;;;5301705;27;20246;-67
2024/04/19 08:37:24;;;;;;;6.40;5.80;;;9.00;50.50;;;;;;5306742;27;20245;-65
2024/04/19 08:39:52;;;;;;;5.73;5.23;;;9.00;51.70;;;;;;5292555;27;20238;-65
2024/04/19 08:42:21;;;;;;;5.63;5.13;;;9.10;51.60;;;;;;5297928;27;20247;-65
2024/04/19 08:44:49;;;;;;;5.83;5.33;;;9.30;51.00;;;;;;5311592;27;20295;-65
2024/04/19 08:47:18;;;;;;;5.47;4.97;;;9.40;49.30;;;;;;5310915;27;20240;-65
2024/04/19 08:49:47;;;;;;;5.83;5.33;;;9.30;48.50;;;;;;5311418;27;20291;-66
2024/04/19 08:52:15;;;;;;;5.90;5.30;;;9.50;47.80;;;;;;5303842;27;20316;-65
2024/04/19 08:54:43;;;;;;;5.63;5.13;;;9.70;46.50;;;;;;5302518;27;20245;-65
2024/04/19 08:57:12;;;;;;;5.60;5.10;;;9.50;46.50;;;;;;5295539;27;20375;-65
2024/04/19 08:59:40;;;;;;;5.33;4.77;;;9.60;46.30;;;;;;5311517;27;20236;-65
2024/04/19 09:02:08;;;;;;;5.40;4.90;;;9.80;45.90;;;;;;5310540;27;20350;-65
2024/04/19 09:04:37;;;;;;;7.10;4.97;;;9.60;45.10;;;;;;5305813;27;20360;-65
2024/04/19 09:07:05;;;;;;;5.37;4.87;;;9.40;45.80;;;;;;5306771;27;20363;-65
2024/04/19 09:09:33;;;;;;;5.20;4.70;;;9.20;45.10;;;;;;5303134;27;20255;-65
2024/04/19 09:12:01;;;;;;;5.10;4.60;;;9.50;45.00;;;;;;5302786;27;20302;-65
2024/04/19 09:14:29;;;;;;;5.37;4.87;;;9.80;43.10;;;;;;5303060;27;20690;-65
2024/04/19 09:16:58;;;;;;;4.77;4.37;;;9.90;41.80;;;;;;5296879;27;20274;-65
2024/04/19 09:19:26;;;;;;;4.87;4.40;;;10.00;41.50;;;;;;5271194;27;20256;-65
2024/04/19 09:21:54;;;;;;;4.40;4.00;;;9.70;43.80;;;;;;5300864;27;20758;-65
2024/04/19 09:24:22;;;;;;;5.40;4.90;;;9.30;44.70;;;;;;5308837;27;20238;-65
2024/04/19 09:26:51;;;;;;;5.10;4.60;;;9.20;44.80;;;;;;5304256;26;20361;-65
2024/04/19 09:29:20;;;;;;;5.33;4.33;;;9.30;44.90;;;;;;5295984;27;20251;-65
2024/04/19 09:31:48;;;;;;;4.97;4.47;;;9.60;43.50;;;;;;5301192;27;20290;-65
2024/04/19 09:34:16;;;;;;;5.13;4.67;;;9.70;44.00;;;;;;5299229;27;20251;-65
2024/04/19 09:36:44;;;;;;;4.77;4.33;;;9.40;43.80;;;;;;5287135;27;20267;-65
2024/04/19 09:39:12;;;;;;;7.83;4.80;;;9.30;43.90;;;;;;5286607;27;20317;-66
2024/04/19 09:41:41;;;;;;;5.43;4.50;;;9.40;44.00;;;;;;5285148;27;20853;-66
2024/04/19 09:44:09;;;;;;;6.57;5.20;;;9.40;44.10;;;;;;5289644;27;20244;-66
2024/04/19 09:46:37;;;;;;;5.73;5.23;;;9.20;45.80;;;;;;5256373;27;20249;-66
2024/04/19 09:49:06;;;;;;;5.83;5.13;;;9.10;46.50;;;;;;5303823;27;20329;-65
2024/04/19 09:51:34;;;;;;;5.57;4.73;;;8.90;47.40;;;;;;5271543;27;20309;-65
2024/04/19 09:54:02;;;;;;;5.30;4.70;;;8.70;47.80;;;;;;5296181;27;20340;-65
2024/04/19 09:56:30;;;;;;;5.70;5.20;;;8.20;50.20;;;;;;5295035;27;20285;-66
2024/04/19 09:59:01;;;;;;;5.53;4.97;;;8.00;53.10;;;;;;5285184;27;20266;-66
2024/04/19 10:01:29;;;;;;;6.93;5.43;;;8.10;54.30;;;;;;5295450;27;20643;-66
2024/04/19 10:03:58;;;;;;;5.77;5.27;;;8.40;54.40;;;;;;5292573;27;20315;-66
2024/04/19 10:06:26;;;;;;;6.03;5.27;;;8.70;53.40;;;;;;5293054;27;20361;-66
2024/04/19 10:08:54;;;;;;;6.23;5.03;;;8.60;53.30;;;;;;5293046;27;20289;-66
2024/04/19 10:11:23;;;;;;;5.57;4.80;;;8.30;53.10;;;;;;5288295;27;20294;-66
2024/04/19 10:13:51;;;;;;;4.90;4.33;;;8.20;53.80;;;;;;5284074;27;20408;-65
2024/04/19 10:16:19;;;;;;;5.30;4.80;;;8.20;53.70;;;;;;5290082;27;20303;-64
2024/04/19 10:18:50;;;;;;;5.40;4.90;;;8.50;53.20;;;;;;5293355;27;20459;-65
2024/04/19 10:21:18;;;;;;;4.70;4.30;;;8.70;52.70;;;;;;5289667;27;20302;-65
2024/04/19 10:23:46;;;;;;;4.37;3.97;;;8.70;52.20;;;;;;5284927;27;20252;-66
2024/04/19 10:26:14;;;;;;;4.50;4.10;;;8.70;49.90;;;;;;5296590;27;20373;-66
2024/04/19 10:28:42;;;;;;;4.80;3.77;;;8.80;51.60;;;;;;5290022;27;20355;-66
2024/04/19 10:31:11;;;;;;;4.63;4.23;;;8.90;50.20;;;;;;5293214;27;20840;-65
2024/04/19 10:33:39;;;;;;;4.67;4.23;;;8.60;50.80;;;;;;5294001;27;20242;-65
2024/04/19 10:36:07;;;;;;;4.60;4.20;;;8.50;50.20;;;;;;5296116;27;20730;-65
2024/04/19 10:38:35;;;;;;;4.67;4.23;;;8.20;52.90;;;;;;5293410;27;20411;-66
2024/04/19 10:41:04;;;;;;;4.37;3.97;;;8.20;52.90;;;;;;5295509;27;20260;-65
2024/04/19 10:43:33;;;;;;;4.10;3.70;;;8.20;53.00;;;;;;5286907;27;21042;-65
2024/04/19 10:46:01;;;;;;;3.73;3.43;;;8.40;53.70;;;;;;5286144;27;20396;-65
2024/04/19 10:48:29;;;;;;;4.00;3.70;;;8.20;51.90;;;;;;5294748;27;20298;-66
2024/04/19 10:50:57;;;;;;;4.43;4.07;;;8.50;52.40;;;;;;5280160;27;20355;-66
2024/04/19 10:53:26;;;;;;;4.67;4.27;;;8.70;50.90;;;;;;5256904;27;20255;-66
2024/04/19 10:55:54;;;;;;;4.20;3.90;;;8.70;51.00;;;;;;5290017;27;20246;-65
2024/04/19 10:58:22;;;;;;;4.40;3.80;;;8.80;48.50;;;;;;5290391;27;20362;-66
2024/04/19 11:00:51;;;;;;;3.93;3.63;;;9.00;47.90;;;;;;5288417;27;20731;-65
2024/04/19 11:03:19;;;;;;;3.50;3.20;;;9.00;47.70;;;;;;5292688;27;20252;-66
2024/04/19 11:05:47;;;;;;;3.43;3.20;;;9.10;48.90;;;;;;5268941;27;20355;-65
2024/04/19 11:08:15;;;;;;;3.50;3.20;;;8.90;46.50;;;;;;5299877;27;20246;-65
2024/04/19 11:10:44;;;;;;;3.70;3.40;;;8.80;46.60;;;;;;5297243;27;20753;-65
2024/04/19 11:13:13;;;;;;;3.87;2.90;;;8.80;46.20;;;;;;5303656;27;20254;-67
2024/04/19 11:15:41;;;;;;;5.40;3.27;;;8.70;45.60;;;;;;5293682;27;20251;-65
2024/04/19 11:18:09;;;;;;;2.90;2.70;;;8.70;47.10;;;;;;5282290;27;20674;-64
2024/04/19 11:20:37;;;;;;;3.40;3.20;;;9.50;47.20;;;;;;5290115;27;20449;-66
2024/04/19 11:23:06;;;;;;;3.50;3.20;;;9.50;45.40;;;;;;5296660;27;20251;-65
2024/04/19 11:25:36;;;;;;;5.23;3.37;;;9.20;45.40;;;;;;5297266;27;20258;-65
2024/04/19 11:28:04;;;;;;;3.07;2.87;;;9.20;42.90;;;;;;5295873;27;20276;-65
2024/04/19 11:30:32;;;;;;;3.47;3.17;;;9.00;44.60;;;;;;5307801;27;20504;-65
2024/04/19 11:33:01;;;;;;;3.47;3.17;;;9.00;43.70;;;;;;5296766;27;20641;-65
2024/04/19 11:35:29;;;;;;;4.73;3.20;;;8.90;43.30;;;;;;5308665;27;20860;-65
2024/04/19 11:37:57;;;;;;;3.63;3.33;;;8.80;43.20;;;;;;5303350;27;20247;-64
2024/04/19 11:40:27;;;;;;;3.50;3.20;;;8.80;43.70;;;;;;5297264;26;20888;-65
2024/04/19 11:42:55;;;;;;;3.27;3.00;;;8.60;45.00;;;;;;5309885;27;20242;-65
2024/04/19 11:45:21;;;;;;;3.93;2.70;;;8.70;44.70;;;;;;5307709;27;20247;-65
2024/04/19 11:47:50;;;;;;;3.10;2.90;;;8.70;44.00;;;;;;5296876;27;20243;-65
2024/04/19 11:50:18;;;;;;;3.03;2.73;;;8.80;43.20;;;;;;5303770;27;20796;-65
2024/04/19 11:52:46;;;;;;;3.30;3.00;;;8.70;42.60;;;;;;5304119;27;20239;-65
2024/04/19 11:55:14;;;;;;;2.83;2.60;;;8.50;43.30;;;;;;5298946;27;20360;-65
2024/04/19 11:57:43;;;;;;;4.13;3.00;;;8.50;43.40;;;;;;5301317;27;20717;-65
2024/04/19 12:00:12;;;;;;;4.63;3.13;;;8.60;44.30;;;;;;5296324;27;20242;-65
2024/04/19 12:02:40;;;;;;;3.27;2.97;;;8.60;44.30;;;;;;5302019;27;20662;-65
2024/04/19 12:05:08;;;;;;;3.10;2.70;;;8.60;45.10;;;;;;5303002;27;20293;-64
2024/04/19 12:07:37;;;;;;;2.60;2.40;;;8.60;45.50;;;;;;5309278;27;20246;-64
2024/04/19 12:10:05;;;;;;;2.93;2.67;;;8.50;45.50;;;;;;5303026;27;20752;-65
2024/04/19 12:12:33;;;;;;;3.00;2.80;;;8.50;45.90;;;;;;5309905;27;20389;-64
2024/04/19 12:15:02;;;;;;;4.80;2.97;;;8.30;45.20;;;;;;5298312;27;20250;-64
2024/04/19 12:17:30;;;;;;;3.07;2.87;;;8.40;45.30;;;;;;5290515;27;20779;-64
2024/04/19 12:19:58;;;;;;;3.07;2.87;;;8.30;46.60;;;;;;5306193;27;20253;-64
2024/04/19 12:22:26;;;;;;;2.93;2.60;;;8.30;45.90;;;;;;5303861;27;20315;-66
2024/04/19 12:24:55;;;;;;;3.00;2.80;;;8.30;45.40;;;;;;5296328;27;20252;-65
2024/04/19 12:27:23;;;;;;;2.87;2.63;;;8.50;46.10;;;;;;5307682;27;20233;-64
2024/04/19 12:29:51;;;;;;;2.97;2.77;;;8.50;46.00;;;;;;5308254;27;20261;-64
2024/04/19 12:32:19;;;;;;;4.67;2.87;;;8.60;45.50;;;;;;5310781;27;20345;-65
2024/04/19 12:34:48;;;;;;;2.50;2.30;;;8.30;45.60;;;;;;5291172;27;20982;-64
2024/04/19 12:37:16;;;;;;;3.67;3.37;;;8.40;44.10;;;;;;5309680;27;20300;-64
2024/04/19 12:39:44;;;;;;;4.20;3.83;;;8.30;45.90;;;;;;5302370;27;20334;-65
2024/04/19 12:42:13;;;;;;;2.47;2.37;;;8.40;44.80;;;;;;5299304;27;20338;-64
2024/04/19 12:44:47;;;;;;;3.03;2.40;;;8.40;45.20;;;;;;5308920;27;20276;-64
2024/04/19 12:47:15;;;;;;;2.53;2.33;;;8.50;45.60;;;;;;5308402;27;20270;-65
2024/04/19 12:49:44;;;;;;;2.80;2.60;;;8.50;45.00;;;;;;5309078;27;20294;-64
2024/04/19 12:52:12;;;;;;;2.70;2.33;;;8.50;45.50;;;;;;5310334;27;20300;-65
2024/04/19 12:54:40;;;;;;;3.87;2.47;;;8.60;45.80;;;;;;5295097;27;20301;-64
2024/04/19 12:57:08;;;;;;;2.50;2.30;;;8.50;45.10;;;;;;5307809;27;20238;-65
2024/04/19 12:59:37;;;;;;;3.07;2.10;;;8.40;46.20;;;;;;5296335;27;20312;-66
2024/04/19 13:02:06;;;;;;;2.33;2.20;;;8.30;47.30;;;;;;5305889;27;21132;-64
2024/04/19 13:04:34;;;;;;;2.40;2.20;;;8.20;47.60;;;;;;5299891;27;20846;-63
2024/04/19 13:07:02;;;;;;;2.50;2.30;;;8.10;48.20;;;;;;5309284;27;20249;-64